sensor_id;sensor_type;location;lat;lon;timestamp;P1;durP1;ratioP1;P2;durP2;ratioP2
53253;SDS011;39148;53.332;6.922;2022-11-20T00:03:39;9.63;;;6.10;;
53253;SDS011;39148;53.332;6.922;2022-11-20T00:06:06;9.27;;;6.32;;
53253;SDS011;39148;53.332;6.922;2022-11-20T00:08:32;9.82;;;6.32;;
53253;SDS011;39148;53.332;6.922;2022-11-20T00:11:06;8.68;;;6.20;;
53253;SDS011;39148;53.332;6.922;2022-11-20T00:13:32;10.07;;;6.20;;
53253;SDS011;39148;53.332;6.922;2022-11-20T00:15:59;8.90;;;6.32;;
53253;SDS011;39148;53.332;6.922;2022-11-20T00:18:26;8.65;;;5.85;;
53253;SDS011;39148;53.332;6.922;2022-11-20T00:20:52;8.75;;;6.05;;
53253;SDS011;39148;53.332;6.922;2022-11-20T00:23:18;8.88;;;5.57;;
53253;SDS011;39148;53.332;6.922;2022-11-20T00:25:44;9.23;;;5.65;;
53253;SDS011;39148;53.332;6.922;2022-11-20T00:28:11;8.45;;;5.82;;
53253;SDS011;39148;53.332;6.922;2022-11-20T00:30:37;11.05;;;5.85;;
53253;SDS011;39148;53.332;6.922;2022-11-20T00:33:03;7.90;;;5.30;;
53253;SDS011;39148;53.332;6.922;2022-11-20T00:35:29;10.15;;;6.07;;
53253;SDS011;39148;53.332;6.922;2022-11-20T00:37:55;9.55;;;5.97;;
53253;SDS011;39148;53.332;6.922;2022-11-20T00:40:20;10.85;;;6.10;;
53253;SDS011;39148;53.332;6.922;2022-11-20T00:42:46;8.55;;;5.57;;
53253;SDS011;39148;53.332;6.922;2022-11-20T00:45:12;9.65;;;5.43;;
53253;SDS011;39148;53.332;6.922;2022-11-20T00:47:38;9.63;;;6.05;;
53253;SDS011;39148;53.332;6.922;2022-11-20T00:50:04;8.90;;;6.18;;
53253;SDS011;39148;53.332;6.922;2022-11-20T00:52:30;10.32;;;5.75;;
53253;SDS011;39148;53.332;6.922;2022-11-20T00:54:56;8.63;;;5.75;;
53253;SDS011;39148;53.332;6.922;2022-11-20T00:57:22;9.43;;;6.28;;
53253;SDS011;39148;53.332;6.922;2022-11-20T00:59:48;10.23;;;6.32;;
53253;SDS011;39148;53.332;6.922;2022-11-20T01:02:14;9.20;;;6.22;;
53253;SDS011;39148;53.332;6.922;2022-11-20T01:04:41;10.43;;;6.05;;
53253;SDS011;39148;53.332;6.922;2022-11-20T01:07:07;9.43;;;6.45;;
53253;SDS011;39148;53.332;6.922;2022-11-20T01:09:33;8.95;;;5.93;;
53253;SDS011;39148;53.332;6.922;2022-11-20T01:12:00;9.45;;;5.63;;
53253;SDS011;39148;53.332;6.922;2022-11-20T01:14:26;8.35;;;5.40;;
53253;SDS011;39148;53.332;6.922;2022-11-20T01:16:52;7.78;;;5.38;;
53253;SDS011;39148;53.332;6.922;2022-11-20T01:19:21;9.07;;;5.72;;
53253;SDS011;39148;53.332;6.922;2022-11-20T01:21:49;8.65;;;5.93;;
53253;SDS011;39148;53.332;6.922;2022-11-20T01:24:16;8.20;;;5.28;;
53253;SDS011;39148;53.332;6.922;2022-11-20T01:26:43;9.10;;;5.80;;
53253;SDS011;39148;53.332;6.922;2022-11-20T01:29:12;9.45;;;5.72;;
53253;SDS011;39148;53.332;6.922;2022-11-20T01:31:38;9.63;;;6.10;;
53253;SDS011;39148;53.332;6.922;2022-11-20T01:34:05;8.70;;;5.13;;
53253;SDS011;39148;53.332;6.922;2022-11-20T01:36:32;7.55;;;5.10;;
53253;SDS011;39148;53.332;6.922;2022-11-20T01:38:59;9.32;;;5.70;;
53253;SDS011;39148;53.332;6.922;2022-11-20T01:41:27;10.60;;;5.90;;
53253;SDS011;39148;53.332;6.922;2022-11-20T01:44:14;8.80;;;5.65;;
53253;SDS011;39148;53.332;6.922;2022-11-20T01:46:42;9.02;;;5.38;;
53253;SDS011;39148;53.332;6.922;2022-11-20T01:49:15;9.02;;;5.55;;
53253;SDS011;39148;53.332;6.922;2022-11-20T01:51:44;8.48;;;6.00;;
53253;SDS011;39148;53.332;6.922;2022-11-20T01:54:12;8.65;;;5.95;;
53253;SDS011;39148;53.332;6.922;2022-11-20T01:56:39;9.20;;;5.72;;
53253;SDS011;39148;53.332;6.922;2022-11-20T01:59:07;8.27;;;5.90;;
53253;SDS011;39148;53.332;6.922;2022-11-20T02:01:34;9.43;;;5.80;;
53253;SDS011;39148;53.332;6.922;2022-11-20T02:04:02;7.53;;;5.60;;
53253;SDS011;39148;53.332;6.922;2022-11-20T02:06:29;8.38;;;6.00;;
53253;SDS011;39148;53.332;6.922;2022-11-20T02:09:00;8.77;;;5.47;;
53253;SDS011;39148;53.332;6.922;2022-11-20T02:11:27;8.30;;;5.30;;
53253;SDS011;39148;53.332;6.922;2022-11-20T02:13:55;8.98;;;6.05;;
53253;SDS011;39148;53.332;6.922;2022-11-20T02:16:23;8.32;;;5.38;;
53253;SDS011;39148;53.332;6.922;2022-11-20T02:18:49;8.18;;;5.40;;
53253;SDS011;39148;53.332;6.922;2022-11-20T02:24:14;7.97;;;5.38;;
53253;SDS011;39148;53.332;6.922;2022-11-20T02:26:42;9.00;;;5.25;;
53253;SDS011;39148;53.332;6.922;2022-11-20T02:29:10;8.13;;;5.50;;
53253;SDS011;39148;53.332;6.922;2022-11-20T02:31:36;8.55;;;5.78;;
53253;SDS011;39148;53.332;6.922;2022-11-20T02:34:03;9.20;;;5.70;;
53253;SDS011;39148;53.332;6.922;2022-11-20T02:36:29;8.82;;;5.75;;
53253;SDS011;39148;53.332;6.922;2022-11-20T02:38:56;10.25;;;5.20;;
53253;SDS011;39148;53.332;6.922;2022-11-20T02:41:30;8.13;;;5.38;;
53253;SDS011;39148;53.332;6.922;2022-11-20T02:43:56;8.55;;;5.63;;
53253;SDS011;39148;53.332;6.922;2022-11-20T02:46:22;8.77;;;5.80;;
53253;SDS011;39148;53.332;6.922;2022-11-20T02:48:48;9.98;;;6.18;;
53253;SDS011;39148;53.332;6.922;2022-11-20T02:51:14;8.02;;;5.72;;
53253;SDS011;39148;53.332;6.922;2022-11-20T02:53:40;8.45;;;5.63;;
53253;SDS011;39148;53.332;6.922;2022-11-20T02:56:06;8.52;;;5.55;;
53253;SDS011;39148;53.332;6.922;2022-11-20T02:58:32;7.95;;;5.32;;
53253;SDS011;39148;53.332;6.922;2022-11-20T03:00:58;9.70;;;5.72;;
53253;SDS011;39148;53.332;6.922;2022-11-20T03:03:24;8.10;;;5.28;;
53253;SDS011;39148;53.332;6.922;2022-11-20T03:05:50;7.75;;;5.50;;
53253;SDS011;39148;53.332;6.922;2022-11-20T03:08:16;9.25;;;6.15;;
53253;SDS011;39148;53.332;6.922;2022-11-20T03:10:42;9.30;;;5.70;;
53253;SDS011;39148;53.332;6.922;2022-11-20T03:13:08;10.80;;;6.00;;
53253;SDS011;39148;53.332;6.922;2022-11-20T03:15:35;7.53;;;5.03;;
53253;SDS011;39148;53.332;6.922;2022-11-20T03:18:02;9.90;;;5.38;;
53253;SDS011;39148;53.332;6.922;2022-11-20T03:20:28;7.68;;;5.30;;
53253;SDS011;39148;53.332;6.922;2022-11-20T03:22:54;8.20;;;5.38;;
53253;SDS011;39148;53.332;6.922;2022-11-20T03:25:20;8.05;;;5.10;;
53253;SDS011;39148;53.332;6.922;2022-11-20T03:27:46;9.35;;;5.70;;
53253;SDS011;39148;53.332;6.922;2022-11-20T03:30:13;8.05;;;5.65;;
53253;SDS011;39148;53.332;6.922;2022-11-20T03:32:40;7.68;;;5.15;;
53253;SDS011;39148;53.332;6.922;2022-11-20T03:35:05;9.13;;;5.13;;
53253;SDS011;39148;53.332;6.922;2022-11-20T03:37:32;8.02;;;4.97;;
53253;SDS011;39148;53.332;6.922;2022-11-20T03:39:58;8.05;;;4.68;;
53253;SDS011;39148;53.332;6.922;2022-11-20T03:42:24;8.27;;;5.55;;
53253;SDS011;39148;53.332;6.922;2022-11-20T03:45:08;8.52;;;4.50;;
53253;SDS011;39148;53.332;6.922;2022-11-20T03:47:34;8.20;;;4.55;;
53253;SDS011;39148;53.332;6.922;2022-11-20T03:50:01;6.97;;;4.70;;
53253;SDS011;39148;53.332;6.922;2022-11-20T03:52:27;7.05;;;4.40;;
53253;SDS011;39148;53.332;6.922;2022-11-20T03:54:53;7.18;;;4.63;;
53253;SDS011;39148;53.332;6.922;2022-11-20T03:57:19;7.78;;;5.00;;
53253;SDS011;39148;53.332;6.922;2022-11-20T03:59:45;7.53;;;4.78;;
53253;SDS011;39148;53.332;6.922;2022-11-20T04:02:11;7.07;;;4.60;;
53253;SDS011;39148;53.332;6.922;2022-11-20T04:04:37;7.60;;;4.60;;
53253;SDS011;39148;53.332;6.922;2022-11-20T04:07:03;9.60;;;4.95;;
53253;SDS011;39148;53.332;6.922;2022-11-20T04:09:29;8.38;;;4.72;;
53253;SDS011;39148;53.332;6.922;2022-11-20T04:11:54;7.68;;;5.20;;
53253;SDS011;39148;53.332;6.922;2022-11-20T04:14:20;7.07;;;4.68;;
53253;SDS011;39148;53.332;6.922;2022-11-20T04:16:45;6.38;;;4.38;;
53253;SDS011;39148;53.332;6.922;2022-11-20T04:19:13;7.78;;;4.70;;
53253;SDS011;39148;53.332;6.922;2022-11-20T04:21:40;6.88;;;4.88;;
53253;SDS011;39148;53.332;6.922;2022-11-20T04:24:07;7.35;;;4.85;;
53253;SDS011;39148;53.332;6.922;2022-11-20T04:26:33;7.53;;;4.88;;
53253;SDS011;39148;53.332;6.922;2022-11-20T04:28:59;7.15;;;4.85;;
53253;SDS011;39148;53.332;6.922;2022-11-20T04:31:27;7.65;;;4.70;;
53253;SDS011;39148;53.332;6.922;2022-11-20T04:33:54;7.30;;;5.00;;
53253;SDS011;39148;53.332;6.922;2022-11-20T04:36:24;6.78;;;4.68;;
53253;SDS011;39148;53.332;6.922;2022-11-20T04:38:51;8.18;;;4.75;;
53253;SDS011;39148;53.332;6.922;2022-11-20T04:41:18;6.72;;;4.35;;
53253;SDS011;39148;53.332;6.922;2022-11-20T04:43:47;7.50;;;5.00;;
53253;SDS011;39148;53.332;6.922;2022-11-20T04:46:14;7.65;;;4.43;;
53253;SDS011;39148;53.332;6.922;2022-11-20T04:48:40;6.90;;;4.40;;
53253;SDS011;39148;53.332;6.922;2022-11-20T04:51:06;6.60;;;4.30;;
53253;SDS011;39148;53.332;6.922;2022-11-20T04:53:32;6.75;;;4.47;;
53253;SDS011;39148;53.332;6.922;2022-11-20T04:56:05;7.10;;;4.78;;
53253;SDS011;39148;53.332;6.922;2022-11-20T04:58:31;6.70;;;4.45;;
53253;SDS011;39148;53.332;6.922;2022-11-20T05:01:07;7.90;;;4.65;;
53253;SDS011;39148;53.332;6.922;2022-11-20T05:03:34;7.18;;;4.20;;
53253;SDS011;39148;53.332;6.922;2022-11-20T05:06:01;7.07;;;4.35;;
53253;SDS011;39148;53.332;6.922;2022-11-20T05:08:27;7.28;;;4.35;;
53253;SDS011;39148;53.332;6.922;2022-11-20T05:10:53;7.00;;;4.53;;
53253;SDS011;39148;53.332;6.922;2022-11-20T05:13:19;7.97;;;4.43;;
53253;SDS011;39148;53.332;6.922;2022-11-20T05:15:45;7.80;;;4.85;;
53253;SDS011;39148;53.332;6.922;2022-11-20T05:18:10;7.57;;;3.92;;
53253;SDS011;39148;53.332;6.922;2022-11-20T05:20:36;8.13;;;4.72;;
53253;SDS011;39148;53.332;6.922;2022-11-20T05:23:02;6.88;;;4.25;;
53253;SDS011;39148;53.332;6.922;2022-11-20T05:25:28;7.85;;;4.80;;
53253;SDS011;39148;53.332;6.922;2022-11-20T05:27:54;6.63;;;4.45;;
53253;SDS011;39148;53.332;6.922;2022-11-20T05:30:20;6.65;;;3.65;;
53253;SDS011;39148;53.332;6.922;2022-11-20T05:32:46;6.97;;;4.25;;
53253;SDS011;39148;53.332;6.922;2022-11-20T05:35:12;6.07;;;4.03;;
53253;SDS011;39148;53.332;6.922;2022-11-20T05:37:39;7.88;;;4.53;;
53253;SDS011;39148;53.332;6.922;2022-11-20T05:40:05;7.18;;;4.32;;
53253;SDS011;39148;53.332;6.922;2022-11-20T05:42:31;7.50;;;4.78;;
53253;SDS011;39148;53.332;6.922;2022-11-20T05:45:00;8.70;;;4.70;;
53253;SDS011;39148;53.332;6.922;2022-11-20T05:47:31;6.80;;;4.32;;
53253;SDS011;39148;53.332;6.922;2022-11-20T05:49:57;7.70;;;4.25;;
53253;SDS011;39148;53.332;6.922;2022-11-20T05:52:23;7.07;;;4.32;;
53253;SDS011;39148;53.332;6.922;2022-11-20T05:54:50;6.38;;;4.05;;
53253;SDS011;39148;53.332;6.922;2022-11-20T05:57:16;6.68;;;4.15;;
53253;SDS011;39148;53.332;6.922;2022-11-20T05:59:42;7.70;;;4.63;;
53253;SDS011;39148;53.332;6.922;2022-11-20T06:02:08;5.78;;;4.15;;
53253;SDS011;39148;53.332;6.922;2022-11-20T06:04:34;7.10;;;4.38;;
53253;SDS011;39148;53.332;6.922;2022-11-20T06:07:00;7.70;;;4.55;;
53253;SDS011;39148;53.332;6.922;2022-11-20T06:09:26;6.80;;;4.25;;
53253;SDS011;39148;53.332;6.922;2022-11-20T06:11:52;7.80;;;4.72;;
53253;SDS011;39148;53.332;6.922;2022-11-20T06:14:18;7.30;;;4.80;;
53253;SDS011;39148;53.332;6.922;2022-11-20T06:16:44;7.10;;;4.55;;
53253;SDS011;39148;53.332;6.922;2022-11-20T06:19:10;7.30;;;4.75;;
53253;SDS011;39148;53.332;6.922;2022-11-20T06:21:35;7.30;;;4.57;;
53253;SDS011;39148;53.332;6.922;2022-11-20T06:24:01;7.00;;;4.25;;
53253;SDS011;39148;53.332;6.922;2022-11-20T06:26:27;7.63;;;4.75;;
53253;SDS011;39148;53.332;6.922;2022-11-20T06:28:53;6.40;;;4.35;;
53253;SDS011;39148;53.332;6.922;2022-11-20T06:31:21;7.93;;;4.93;;
53253;SDS011;39148;53.332;6.922;2022-11-20T06:33:48;8.20;;;4.75;;
53253;SDS011;39148;53.332;6.922;2022-11-20T06:36:15;6.82;;;4.70;;
53253;SDS011;39148;53.332;6.922;2022-11-20T06:38:42;7.35;;;4.65;;
53253;SDS011;39148;53.332;6.922;2022-11-20T06:41:12;7.72;;;4.88;;
53253;SDS011;39148;53.332;6.922;2022-11-20T06:43:38;7.13;;;4.47;;
53253;SDS011;39148;53.332;6.922;2022-11-20T06:46:04;6.95;;;4.75;;
53253;SDS011;39148;53.332;6.922;2022-11-20T06:48:31;7.55;;;4.97;;
53253;SDS011;39148;53.332;6.922;2022-11-20T06:50:57;6.82;;;4.70;;
53253;SDS011;39148;53.332;6.922;2022-11-20T06:53:23;7.88;;;4.80;;
53253;SDS011;39148;53.332;6.922;2022-11-20T06:55:50;7.88;;;4.72;;
53253;SDS011;39148;53.332;6.922;2022-11-20T06:58:16;7.32;;;4.80;;
53253;SDS011;39148;53.332;6.922;2022-11-20T07:00:43;7.55;;;4.72;;
53253;SDS011;39148;53.332;6.922;2022-11-20T07:03:09;7.40;;;5.00;;
53253;SDS011;39148;53.332;6.922;2022-11-20T07:05:36;8.18;;;5.20;;
53253;SDS011;39148;53.332;6.922;2022-11-20T07:08:03;8.40;;;5.03;;
53253;SDS011;39148;53.332;6.922;2022-11-20T07:10:29;7.60;;;4.55;;
53253;SDS011;39148;53.332;6.922;2022-11-20T07:12:56;7.45;;;4.95;;
53253;SDS011;39148;53.332;6.922;2022-11-20T07:15:22;7.75;;;5.13;;
53253;SDS011;39148;53.332;6.922;2022-11-20T07:17:48;8.27;;;5.38;;
53253;SDS011;39148;53.332;6.922;2022-11-20T07:20:15;8.00;;;5.35;;
53253;SDS011;39148;53.332;6.922;2022-11-20T07:22:41;8.77;;;5.70;;
53253;SDS011;39148;53.332;6.922;2022-11-20T07:25:08;8.82;;;5.50;;
53253;SDS011;39148;53.332;6.922;2022-11-20T07:27:34;9.73;;;5.53;;
53253;SDS011;39148;53.332;6.922;2022-11-20T07:30:00;8.05;;;5.10;;
53253;SDS011;39148;53.332;6.922;2022-11-20T07:32:27;7.85;;;5.20;;
53253;SDS011;39148;53.332;6.922;2022-11-20T07:34:53;7.65;;;5.25;;
53253;SDS011;39148;53.332;6.922;2022-11-20T07:37:19;8.25;;;5.65;;
53253;SDS011;39148;53.332;6.922;2022-11-20T07:39:45;10.63;;;5.45;;
53253;SDS011;39148;53.332;6.922;2022-11-20T07:42:11;10.05;;;5.55;;
53253;SDS011;39148;53.332;6.922;2022-11-20T07:44:39;8.43;;;5.70;;
53253;SDS011;39148;53.332;6.922;2022-11-20T07:47:05;8.43;;;5.40;;
53253;SDS011;39148;53.332;6.922;2022-11-20T07:49:31;7.95;;;5.40;;
53253;SDS011;39148;53.332;6.922;2022-11-20T07:51:58;8.57;;;5.32;;
53253;SDS011;39148;53.332;6.922;2022-11-20T07:54:24;8.30;;;5.63;;
53253;SDS011;39148;53.332;6.922;2022-11-20T07:56:50;8.02;;;5.25;;
53253;SDS011;39148;53.332;6.922;2022-11-20T07:59:16;8.63;;;5.78;;
53253;SDS011;39148;53.332;6.922;2022-11-20T08:01:42;7.40;;;5.25;;
53253;SDS011;39148;53.332;6.922;2022-11-20T08:04:08;8.30;;;5.72;;
53253;SDS011;39148;53.332;6.922;2022-11-20T08:06:34;7.68;;;5.30;;
53253;SDS011;39148;53.332;6.922;2022-11-20T08:09:01;9.23;;;5.55;;
53253;SDS011;39148;53.332;6.922;2022-11-20T08:11:27;8.98;;;5.65;;
53253;SDS011;39148;53.332;6.922;2022-11-20T08:14:11;9.02;;;6.05;;
53253;SDS011;39148;53.332;6.922;2022-11-20T08:16:37;9.13;;;5.45;;
53253;SDS011;39148;53.332;6.922;2022-11-20T08:19:03;8.07;;;5.13;;
53253;SDS011;39148;53.332;6.922;2022-11-20T08:21:30;7.47;;;5.30;;
53253;SDS011;39148;53.332;6.922;2022-11-20T08:23:57;7.80;;;5.45;;
53253;SDS011;39148;53.332;6.922;2022-11-20T08:26:23;8.52;;;5.75;;
53253;SDS011;39148;53.332;6.922;2022-11-20T08:28:52;8.13;;;5.15;;
53253;SDS011;39148;53.332;6.922;2022-11-20T08:31:19;8.57;;;5.13;;
53253;SDS011;39148;53.332;6.922;2022-11-20T08:33:45;8.38;;;5.38;;
53253;SDS011;39148;53.332;6.922;2022-11-20T08:36:11;7.32;;;4.75;;
53253;SDS011;39148;53.332;6.922;2022-11-20T08:38:37;7.32;;;5.07;;
53253;SDS011;39148;53.332;6.922;2022-11-20T08:41:04;7.55;;;4.75;;
53253;SDS011;39148;53.332;6.922;2022-11-20T08:44:05;8.30;;;5.15;;
53253;SDS011;39148;53.332;6.922;2022-11-20T08:46:32;6.97;;;4.70;;
53253;SDS011;39148;53.332;6.922;2022-11-20T08:49:00;7.45;;;4.93;;
53253;SDS011;39148;53.332;6.922;2022-11-20T08:51:26;7.30;;;4.95;;
53253;SDS011;39148;53.332;6.922;2022-11-20T08:53:52;8.15;;;4.95;;
53253;SDS011;39148;53.332;6.922;2022-11-20T08:56:18;8.93;;;5.50;;
53253;SDS011;39148;53.332;6.922;2022-11-20T08:58:44;7.22;;;4.78;;
53253;SDS011;39148;53.332;6.922;2022-11-20T09:01:10;7.65;;;5.10;;
53253;SDS011;39148;53.332;6.922;2022-11-20T09:03:36;8.00;;;5.45;;
53253;SDS011;39148;53.332;6.922;2022-11-20T09:06:04;7.35;;;5.35;;
53253;SDS011;39148;53.332;6.922;2022-11-20T09:08:31;9.48;;;5.60;;
53253;SDS011;39148;53.332;6.922;2022-11-20T09:10:57;8.30;;;5.38;;
53253;SDS011;39148;53.332;6.922;2022-11-20T09:13:24;8.85;;;5.15;;
53253;SDS011;39148;53.332;6.922;2022-11-20T09:15:55;7.78;;;5.30;;
53253;SDS011;39148;53.332;6.922;2022-11-20T09:18:21;8.23;;;5.35;;
53253;SDS011;39148;53.332;6.922;2022-11-20T09:20:47;7.47;;;4.88;;
53253;SDS011;39148;53.332;6.922;2022-11-20T09:23:14;7.68;;;4.70;;
53253;SDS011;39148;53.332;6.922;2022-11-20T09:25:40;8.45;;;5.35;;
53253;SDS011;39148;53.332;6.922;2022-11-20T09:28:06;7.75;;;4.82;;
53253;SDS011;39148;53.332;6.922;2022-11-20T09:30:32;7.43;;;4.65;;
53253;SDS011;39148;53.332;6.922;2022-11-20T09:32:58;7.82;;;5.00;;
53253;SDS011;39148;53.332;6.922;2022-11-20T09:35:24;7.82;;;5.18;;
53253;SDS011;39148;53.332;6.922;2022-11-20T09:37:50;8.07;;;5.10;;
53253;SDS011;39148;53.332;6.922;2022-11-20T09:40:23;7.82;;;5.47;;
53253;SDS011;39148;53.332;6.922;2022-11-20T09:56:25;7.93;;;4.95;;
53253;SDS011;39148;53.332;6.922;2022-11-20T09:58:52;7.53;;;5.03;;
53253;SDS011;39148;53.332;6.922;2022-11-20T10:01:21;8.77;;;5.28;;
53253;SDS011;39148;53.332;6.922;2022-11-20T10:06:28;7.15;;;4.65;;
53253;SDS011;39148;53.332;6.922;2022-11-20T10:08:58;7.03;;;4.72;;
53253;SDS011;39148;53.332;6.922;2022-11-20T10:14:00;7.38;;;5.00;;
53253;SDS011;39148;53.332;6.922;2022-11-20T10:29:18;8.65;;;5.05;;
53253;SDS011;39148;53.332;6.922;2022-11-20T10:31:45;7.75;;;4.80;;
53253;SDS011;39148;53.332;6.922;2022-11-20T10:34:20;6.65;;;4.53;;
53253;SDS011;39148;53.332;6.922;2022-11-20T10:36:56;7.45;;;4.60;;
53253;SDS011;39148;53.332;6.922;2022-11-20T10:39:29;7.95;;;4.85;;
53253;SDS011;39148;53.332;6.922;2022-11-20T10:42:07;7.78;;;5.20;;
53253;SDS011;39148;53.332;6.922;2022-11-20T10:44:37;6.70;;;4.78;;
53253;SDS011;39148;53.332;6.922;2022-11-20T10:47:25;7.68;;;4.53;;
53253;SDS011;39148;53.332;6.922;2022-11-20T10:49:53;7.45;;;4.90;;
53253;SDS011;39148;53.332;6.922;2022-11-20T10:54:54;7.90;;;4.85;;
53253;SDS011;39148;53.332;6.922;2022-11-20T10:57:35;6.97;;;4.93;;
53253;SDS011;39148;53.332;6.922;2022-11-20T11:00:23;6.22;;;4.45;;
53253;SDS011;39148;53.332;6.922;2022-11-20T11:02:50;6.97;;;4.38;;
53253;SDS011;39148;53.332;6.922;2022-11-20T11:07:46;6.57;;;4.57;;
53253;SDS011;39148;53.332;6.922;2022-11-20T11:10:15;6.78;;;4.47;;
53253;SDS011;39148;53.332;6.922;2022-11-20T11:12:43;7.32;;;4.50;;
53253;SDS011;39148;53.332;6.922;2022-11-20T11:15:12;6.97;;;4.63;;
53253;SDS011;39148;53.332;6.922;2022-11-20T11:17:46;6.78;;;4.65;;
53253;SDS011;39148;53.332;6.922;2022-11-20T11:20:17;9.57;;;5.00;;
53253;SDS011;39148;53.332;6.922;2022-11-20T11:22:44;7.75;;;4.93;;
53253;SDS011;39148;53.332;6.922;2022-11-20T11:25:21;6.88;;;4.60;;
53253;SDS011;39148;53.332;6.922;2022-11-20T11:27:48;7.22;;;4.57;;
53253;SDS011;39148;53.332;6.922;2022-11-20T11:30:15;8.40;;;5.03;;
53253;SDS011;39148;53.332;6.922;2022-11-20T11:32:42;7.25;;;4.28;;
53253;SDS011;39148;53.332;6.922;2022-11-20T11:35:27;7.70;;;5.07;;
53253;SDS011;39148;53.332;6.922;2022-11-20T11:38:06;8.77;;;4.80;;
53253;SDS011;39148;53.332;6.922;2022-11-20T11:40:33;7.75;;;4.60;;
53253;SDS011;39148;53.332;6.922;2022-11-20T11:43:01;7.60;;;4.50;;
53253;SDS011;39148;53.332;6.922;2022-11-20T11:45:28;7.38;;;4.75;;
53253;SDS011;39148;53.332;6.922;2022-11-20T11:47:55;7.45;;;4.53;;
53253;SDS011;39148;53.332;6.922;2022-11-20T11:50:23;8.15;;;5.10;;
53253;SDS011;39148;53.332;6.922;2022-11-20T11:52:58;6.90;;;4.65;;
53253;SDS011;39148;53.332;6.922;2022-11-20T12:00:32;7.63;;;4.95;;
53253;SDS011;39148;53.332;6.922;2022-11-20T12:03:04;8.32;;;4.70;;
53253;SDS011;39148;53.332;6.922;2022-11-20T12:10:50;9.10;;;5.25;;
53253;SDS011;39148;53.332;6.922;2022-11-20T12:15:44;7.38;;;4.88;;
53253;SDS011;39148;53.332;6.922;2022-11-20T12:18:21;7.80;;;5.15;;
53253;SDS011;39148;53.332;6.922;2022-11-20T12:21:10;8.18;;;4.93;;
53253;SDS011;39148;53.332;6.922;2022-11-20T12:29:08;7.75;;;5.10;;
53253;SDS011;39148;53.332;6.922;2022-11-20T12:52:55;7.55;;;5.15;;
53253;SDS011;39148;53.332;6.922;2022-11-20T13:00:21;8.45;;;4.55;;
53253;SDS011;39148;53.332;6.922;2022-11-20T13:08:22;7.47;;;4.97;;
53253;SDS011;39148;53.332;6.922;2022-11-20T13:10:55;7.97;;;4.68;;
53253;SDS011;39148;53.332;6.922;2022-11-20T13:13:25;8.13;;;4.55;;
53253;SDS011;39148;53.332;6.922;2022-11-20T13:15:54;6.47;;;4.38;;
53253;SDS011;39148;53.332;6.922;2022-11-20T13:18:21;6.95;;;4.82;;
53253;SDS011;39148;53.332;6.922;2022-11-20T13:20:47;6.80;;;4.47;;
53253;SDS011;39148;53.332;6.922;2022-11-20T13:23:24;7.43;;;4.80;;
53253;SDS011;39148;53.332;6.922;2022-11-20T13:26:02;8.65;;;4.68;;
53253;SDS011;39148;53.332;6.922;2022-11-20T13:28:29;6.63;;;4.40;;
53253;SDS011;39148;53.332;6.922;2022-11-20T13:30:56;6.53;;;4.25;;
53253;SDS011;39148;53.332;6.922;2022-11-20T13:33:35;8.57;;;4.90;;
53253;SDS011;39148;53.332;6.922;2022-11-20T13:36:22;7.10;;;4.53;;
53253;SDS011;39148;53.332;6.922;2022-11-20T13:38:51;6.82;;;4.30;;
53253;SDS011;39148;53.332;6.922;2022-11-20T13:46:37;7.93;;;4.93;;
53253;SDS011;39148;53.332;6.922;2022-11-20T13:49:45;7.00;;;4.50;;
53253;SDS011;39148;53.332;6.922;2022-11-20T14:02:37;6.50;;;4.30;;
53253;SDS011;39148;53.332;6.922;2022-11-20T14:05:03;9.77;;;4.68;;
53253;SDS011;39148;53.332;6.922;2022-11-20T14:07:48;7.10;;;4.25;;
53253;SDS011;39148;53.332;6.922;2022-11-20T14:10:19;6.63;;;4.53;;
53253;SDS011;39148;53.332;6.922;2022-11-20T14:12:45;6.60;;;4.63;;
53253;SDS011;39148;53.332;6.922;2022-11-20T14:15:23;8.10;;;4.32;;
53253;SDS011;39148;53.332;6.922;2022-11-20T14:17:50;7.75;;;4.45;;
53253;SDS011;39148;53.332;6.922;2022-11-20T14:20:15;6.43;;;4.10;;
53253;SDS011;39148;53.332;6.922;2022-11-20T14:22:48;8.43;;;4.22;;
53253;SDS011;39148;53.332;6.922;2022-11-20T14:27:42;6.90;;;3.90;;
53253;SDS011;39148;53.332;6.922;2022-11-20T14:30:25;7.10;;;4.10;;
53253;SDS011;39148;53.332;6.922;2022-11-20T14:32:53;6.97;;;4.38;;
53253;SDS011;39148;53.332;6.922;2022-11-20T14:35:24;7.13;;;4.03;;
53253;SDS011;39148;53.332;6.922;2022-11-20T14:38:02;6.28;;;3.92;;
53253;SDS011;39148;53.332;6.922;2022-11-20T14:40:30;6.95;;;4.00;;
53253;SDS011;39148;53.332;6.922;2022-11-20T14:43:00;6.00;;;3.67;;
53253;SDS011;39148;53.332;6.922;2022-11-20T14:45:26;8.13;;;4.25;;
53253;SDS011;39148;53.332;6.922;2022-11-20T14:47:56;6.07;;;3.65;;
53253;SDS011;39148;53.332;6.922;2022-11-20T14:50:24;7.15;;;4.70;;
53253;SDS011;39148;53.332;6.922;2022-11-20T14:52:52;7.15;;;3.95;;
53253;SDS011;39148;53.332;6.922;2022-11-20T14:55:24;6.70;;;4.05;;
53253;SDS011;39148;53.332;6.922;2022-11-20T14:57:54;6.20;;;3.65;;
53253;SDS011;39148;53.332;6.922;2022-11-20T15:00:21;6.25;;;3.63;;
53253;SDS011;39148;53.332;6.922;2022-11-20T15:02:48;5.75;;;3.58;;
53253;SDS011;39148;53.332;6.922;2022-11-20T15:05:15;6.40;;;3.67;;
53253;SDS011;39148;53.332;6.922;2022-11-20T15:07:43;6.40;;;3.78;;
53253;SDS011;39148;53.332;6.922;2022-11-20T15:10:18;6.68;;;4.05;;
53253;SDS011;39148;53.332;6.922;2022-11-20T15:12:50;5.63;;;3.53;;
53253;SDS011;39148;53.332;6.922;2022-11-20T15:15:19;6.07;;;3.53;;
53253;SDS011;39148;53.332;6.922;2022-11-20T15:17:50;5.93;;;3.53;;
53253;SDS011;39148;53.332;6.922;2022-11-20T15:20:16;6.88;;;3.88;;
53253;SDS011;39148;53.332;6.922;2022-11-20T15:22:43;6.43;;;3.53;;
53253;SDS011;39148;53.332;6.922;2022-11-20T15:25:12;6.60;;;3.72;;
53253;SDS011;39148;53.332;6.922;2022-11-20T15:27:39;6.32;;;3.97;;
53253;SDS011;39148;53.332;6.922;2022-11-20T15:30:12;5.80;;;3.60;;
53253;SDS011;39148;53.332;6.922;2022-11-20T15:32:38;6.78;;;3.63;;
53253;SDS011;39148;53.332;6.922;2022-11-20T15:35:05;7.03;;;4.00;;
53253;SDS011;39148;53.332;6.922;2022-11-20T15:37:31;5.72;;;3.60;;
53253;SDS011;39148;53.332;6.922;2022-11-20T15:39:57;6.10;;;3.60;;
53253;SDS011;39148;53.332;6.922;2022-11-20T15:42:23;7.00;;;3.10;;
53253;SDS011;39148;53.332;6.922;2022-11-20T15:44:49;5.57;;;3.67;;
53253;SDS011;39148;53.332;6.922;2022-11-20T15:47:15;5.93;;;3.38;;
53253;SDS011;39148;53.332;6.922;2022-11-20T15:49:42;5.78;;;3.33;;
53253;SDS011;39148;53.332;6.922;2022-11-20T15:52:09;5.90;;;3.60;;
53253;SDS011;39148;53.332;6.922;2022-11-20T15:54:35;7.47;;;3.30;;
53253;SDS011;39148;53.332;6.922;2022-11-20T15:57:01;5.72;;;3.47;;
53253;SDS011;39148;53.332;6.922;2022-11-20T15:59:28;5.60;;;3.60;;
53253;SDS011;39148;53.332;6.922;2022-11-20T16:01:53;5.32;;;3.35;;
53253;SDS011;39148;53.332;6.922;2022-11-20T16:04:19;6.28;;;3.78;;
53253;SDS011;39148;53.332;6.922;2022-11-20T16:06:45;5.32;;;3.33;;
53253;SDS011;39148;53.332;6.922;2022-11-20T16:09:11;5.88;;;3.03;;
53253;SDS011;39148;53.332;6.922;2022-11-20T16:11:37;5.78;;;3.53;;
53253;SDS011;39148;53.332;6.922;2022-11-20T16:14:03;5.75;;;3.30;;
53253;SDS011;39148;53.332;6.922;2022-11-20T16:16:48;6.10;;;3.20;;
53253;SDS011;39148;53.332;6.922;2022-11-20T16:19:14;5.82;;;3.63;;
53253;SDS011;39148;53.332;6.922;2022-11-20T16:21:41;5.40;;;3.40;;
53253;SDS011;39148;53.332;6.922;2022-11-20T16:24:08;5.07;;;3.00;;
53253;SDS011;39148;53.332;6.922;2022-11-20T16:26:35;5.65;;;3.38;;
53253;SDS011;39148;53.332;6.922;2022-11-20T16:29:02;5.00;;;2.90;;
53253;SDS011;39148;53.332;6.922;2022-11-20T16:31:30;5.38;;;3.38;;
53253;SDS011;39148;53.332;6.922;2022-11-20T16:33:56;5.57;;;3.17;;
53253;SDS011;39148;53.332;6.922;2022-11-20T16:36:24;5.97;;;3.40;;
53253;SDS011;39148;53.332;6.922;2022-11-20T16:38:54;5.63;;;3.50;;
53253;SDS011;39148;53.332;6.922;2022-11-20T16:41:21;5.63;;;3.30;;
53253;SDS011;39148;53.332;6.922;2022-11-20T16:43:48;6.45;;;3.33;;